Dades meteomassalio
Diari Summary for Setembre 15, 2017 Units:  English    Metric   Both
« Previous Day
Next Day »
Diari Semanal Mensual Anual Personalitzat
  Maxima: Minima: Mijana:
Temperatura: TemperatureC °F 8.3 °F 12.9 °F
Rosada: DewpointC °F 4.7 °F 7.9 °F
Humitat: Humidity % 50 % 73 %
Velocitat del vent: WindSpeedKMH mph 0.0 mph 9.7 mph
Racha vent: WindSpeedGustKMH mph - -
Vent:- - SSW
Pressio: PressurehPa in 1016.8 in -
Pluja: 8.4 in    
Historical Graphs
 
 
Tabular Data for Setembre 15, 2017
Time Temperature Dew Point Pressure Wind Wind Speed Wind Gust Humidity Rainfall Rate (Hourly) solar Conditions
TemperatureC °F DewpointC °F PressurehPa in Calm     Humidity % HourlyPrecipMM in SolarRadiationWatts/m^2 W/m2 Conditions
00:04 16.7 °F 6.2 °F 1020.5 in SSW 19.3 mph 19.3 mph 50 % 0.0 in 0.0 W/m2 CLR
00:09 16.7 °F 6.2 °F 1020.5 in SSW 18.5 mph 18.5 mph 50 % 0.0 in 0.0 W/m2 CLR
00:14 16.7 °F 6.2 °F 1020.5 in South 11.1 mph 11.1 mph 50 % 0.0 in 0.0 W/m2 CLR
00:19 16.7 °F 6.5 °F 1020.5 in South 11.1 mph 11.1 mph 51 % 0.0 in 0.0 W/m2 CLR
00:24 16.7 °F 6.5 °F 1020.5 in SSW 13.0 mph 13.0 mph 51 % 0.0 in 0.0 W/m2 CLR
00:29 16.1 °F 5.9 °F 1020.5 in South 3.7 mph 3.7 mph 51 % 0.0 in 0.0 W/m2 CLR
00:34 16.1 °F 6.2 °F 1020.5 in SSW 18.5 mph 18.5 mph 52 % 0.0 in 0.0 W/m2 CLR
00:39 16.1 °F 5.9 °F 1020.5 in SSE 13.0 mph 13.0 mph 51 % 0.0 in 0.0 W/m2 CLR
00:44 16.1 °F 5.9 °F 1020.5 in South 7.4 mph 7.4 mph 51 % 0.0 in 0.0 W/m2 CLR
00:49 16.1 °F 5.9 °F 1020.5 in SW 18.5 mph 18.5 mph 51 % 0.0 in 0.0 W/m2 CLR
00:54 15.6 °F 5.7 °F 1020.5 in SSE 14.8 mph 14.8 mph 52 % 0.0 in 0.0 W/m2 CLR
00:59 15.6 °F 5.7 °F 1020.5 in SSW 12.9 mph 12.9 mph 52 % 0.0 in 0.0 W/m2 CLR
01:04 15.6 °F 5.7 °F 1020.5 in South 16.7 mph 16.7 mph 52 % 0.0 in 0.0 W/m2 CLR
01:09 15.6 °F 5.4 °F 1020.5 in South 14.8 mph 14.8 mph 51 % 0.0 in 0.0 W/m2 CLR
01:14 15.6 °F 5.4 °F 1020.2 in SSW 18.5 mph 18.5 mph 51 % 0.0 in 0.0 W/m2 CLR
01:19 15.0 °F 4.7 °F 1020.2 in SSW 16.7 mph 16.7 mph 50 % 0.0 in 0.0 W/m2 CLR
01:24 15.0 °F 4.7 °F 1020.2 in SSW 13.0 mph 13.0 mph 50 % 0.0 in 0.0 W/m2 CLR
01:29 15.6 °F 5.2 °F 1020.2 in South 13.0 mph 13.0 mph 50 % 0.0 in 0.0 W/m2 CLR
01:34 15.0 °F 4.9 °F 1020.2 in Calm     51 % 0.0 in 0.0 W/m2 CLR
01:39 15.0 °F 4.7 °F 1020.2 in Calm     50 % 0.0 in 0.0 W/m2 CLR
01:44 15.0 °F 4.7 °F 1020.2 in SSE 1.9 mph 1.9 mph 50 % 0.0 in 0.0 W/m2 CLR
01:49 15.0 °F 4.7 °F 1019.9 in SSW 3.7 mph 3.7 mph 50 % 0.0 in 0.0 W/m2 CLR
01:54 15.6 °F 5.2 °F 1019.9 in South 9.3 mph 9.3 mph 50 % 0.0 in 0.0 W/m2 CLR
01:59 15.6 °F 5.2 °F 1019.9 in SSW 16.7 mph 16.7 mph 50 % 0.0 in 0.0 W/m2 CLR
02:04 15.6 °F 5.4 °F 1019.9 in South 1.6 mph   51 % 0.0 in 0.0 W/m2 CLR
02:09 15.0 °F 4.9 °F 1019.9 in South 5.6 mph 5.6 mph 51 % 0.0 in 0.0 W/m2 CLR
02:14 15.0 °F 4.9 °F 1019.9 in Calm     51 % 0.0 in 0.0 W/m2 CLR
02:19 15.0 °F 4.9 °F 1019.9 in Calm     51 % 0.0 in 0.0 W/m2 CLR
02:24 15.6 °F 5.7 °F 1019.9 in Calm     52 % 0.0 in 0.0 W/m2 CLR
02:29 15.6 °F 5.7 °F 1019.9 in Calm     52 % 0.0 in 0.0 W/m2 CLR
02:34 15.6 °F 5.7 °F 1019.9 in Calm     52 % 0.0 in 0.0 W/m2 CLR
02:39 15.6 °F 5.7 °F 1019.5 in Calm     52 % 0.0 in 0.0 W/m2 CLR
02:44 15.0 °F 5.5 °F 1019.5 in Calm     53 % 0.0 in 0.0 W/m2 CLR
02:49 15.0 °F 5.5 °F 1019.5 in South 1.9 mph   53 % 0.0 in 0.0 W/m2 CLR
02:54 15.0 °F 5.5 °F 1019.5 in Calm     53 % 0.0 in 0.0 W/m2 CLR
02:59 15.0 °F 5.5 °F 1019.5 in Calm     53 % 0.0 in 0.0 W/m2 CLR
03:04 15.0 °F 5.8 °F 1019.5 in Calm     54 % 0.0 in 0.0 W/m2 CLR
03:09 15.0 °F 5.8 °F 1019.5 in Calm     54 % 0.0 in 0.0 W/m2 CLR
03:14 15.0 °F 6.0 °F 1019.5 in Calm     55 % 0.0 in 0.0 W/m2 CLR
03:19 15.0 °F 6.0 °F 1019.2 in Calm     55 % 0.0 in 0.0 W/m2 CLR
03:24 15.0 °F 6.3 °F 1019.2 in SSW 7.4 mph 7.4 mph 56 % 0.0 in 0.0 W/m2 CLR
03:29 15.0 °F 6.3 °F 1019.2 in SSW 13.0 mph 13.0 mph 56 % 0.0 in 0.0 W/m2 CLR
03:34 15.0 °F 6.3 °F 1019.2 in SSW 5.6 mph 5.6 mph 56 % 0.0 in 0.0 W/m2 CLR
03:39 15.0 °F 6.3 °F 1019.2 in SSW 16.7 mph 16.7 mph 56 % 0.0 in 0.0 W/m2 CLR
03:44 15.0 °F 6.3 °F 1019.2 in SSW 5.6 mph 5.6 mph 56 % 0.0 in 0.0 W/m2 CLR
03:49 15.0 °F 6.3 °F 1019.2 in SSW 5.6 mph 5.6 mph 56 % 0.0 in 0.0 W/m2 CLR
03:54 15.0 °F 6.6 °F 1019.2 in SSW 5.6 mph   57 % 0.0 in 0.0 W/m2 CLR
03:59 15.0 °F 6.6 °F 1019.2 in Calm     57 % 0.0 in 0.0 W/m2 CLR
04:04 15.0 °F 6.6 °F 1018.8 in Calm     57 % 0.0 in 0.0 W/m2 CLR
04:09 15.0 °F 6.6 °F 1018.8 in Calm     57 % 0.0 in 0.0 W/m2 CLR
04:14 15.0 °F 6.6 °F 1018.8 in Calm     57 % 0.0 in 0.0 W/m2 CLR
04:20 15.0 °F 6.6 °F 1018.5 in Calm     57 % 0.0 in 0.0 W/m2 CLR
04:25 15.0 °F 6.6 °F 1018.5 in Calm     57 % 0.0 in 0.0 W/m2 CLR
04:30 15.0 °F 6.3 °F 1018.5 in SSW 5.6 mph 5.6 mph 56 % 0.0 in 0.0 W/m2 CLR
04:35 15.0 °F 6.3 °F 1018.5 in SSW 5.6 mph 5.6 mph 56 % 0.0 in 0.0 W/m2 CLR
04:40 15.0 °F 6.0 °F 1018.5 in SW 11.1 mph 11.1 mph 55 % 0.0 in 0.0 W/m2 CLR
04:45 15.0 °F 6.0 °F 1018.5 in SW 14.8 mph 14.8 mph 55 % 0.0 in 0.0 W/m2 CLR
04:50 15.0 °F 6.0 °F 1018.5 in WSW 18.5 mph 18.5 mph 55 % 0.0 in 0.0 W/m2 CLR
04:55 15.0 °F 5.8 °F 1018.5 in SSW 18.5 mph 18.5 mph 54 % 0.0 in 0.0 W/m2 CLR
05:00 15.0 °F 6.0 °F 1018.5 in SW 11.3 mph 11.3 mph 55 % 0.0 in 0.0 W/m2 CLR
05:05 15.0 °F 5.8 °F 1018.5 in SW 6.4 mph 6.4 mph 54 % 0.0 in 0.0 W/m2 CLR
05:10 15.0 °F 5.8 °F 1018.5 in SW 16.7 mph 16.7 mph 54 % 0.0 in 0.0 W/m2 CLR
05:15 15.0 °F 5.8 °F 1018.5 in SW 14.8 mph 14.8 mph 54 % 0.0 in 0.0 W/m2 CLR
05:21 15.0 °F 6.0 °F 1018.5 in SW 13.0 mph 13.0 mph 55 % 0.0 in 0.0 W/m2 CLR
05:22 15.0 °F 6.0 °F 1018.5 in WSW 14.8 mph 14.8 mph 55 % 0.0 in 0.0 W/m2 CLR
05:27 15.0 °F 6.0 °F 1018.5 in SW 9.7 mph 9.7 mph 55 % 0.0 in 0.0 W/m2 CLR
05:32 15.0 °F 6.0 °F 1018.5 in Calm     55 % 0.0 in 0.0 W/m2 CLR
05:33 15.0 °F 6.3 °F 1018.5 in Calm     56 % 0.0 in 0.0 W/m2 CLR
05:38 15.0 °F 6.3 °F 1018.5 in Calm     56 % 0.0 in 0.0 W/m2 CLR
05:48 14.4 °F 5.8 °F 1018.5 in Calm     56 % 0.0 in 0.0 W/m2 CLR
05:53 14.4 °F 6.0 °F 1018.5 in WSW 14.8 mph 14.8 mph 57 % 0.0 in 0.0 W/m2 CLR
05:58 14.4 °F 6.0 °F 1018.5 in WSW 14.8 mph 14.8 mph 57 % 0.0 in 0.0 W/m2 CLR
06:03 14.4 °F 6.3 °F 1018.5 in WSW 14.8 mph 14.8 mph 58 % 0.0 in 0.0 W/m2 CLR
06:08 14.4 °F 6.3 °F 1018.5 in SW 11.1 mph 11.7 mph 58 % 0.0 in 0.0 W/m2 CLR
06:13 14.4 °F 6.3 °F 1018.5 in SSW 11.1 mph 11.1 mph 58 % 0.0 in 0.0 W/m2 CLR
06:18 14.4 °F 6.5 °F 1018.5 in SW 16.7 mph 16.7 mph 59 % 0.0 in 0.0 W/m2 CLR
06:23 14.4 °F 6.5 °F 1018.5 in SW 22.2 mph 22.2 mph 59 % 0.0 in 0.0 W/m2 CLR
06:28 14.4 °F 6.8 °F 1018.5 in SW 16.7 mph 16.7 mph 60 % 0.0 in 0.0 W/m2 CLR
06:33 14.4 °F 7.0 °F 1018.5 in SW 16.7 mph 16.7 mph 61 % 0.0 in 0.0 W/m2 CLR
06:38 14.4 °F 7.0 °F 1018.5 in SW 11.1 mph 11.1 mph 61 % 0.0 in 0.0 W/m2 CLR
06:43 14.4 °F 7.0 °F 1018.2 in SW 18.5 mph 18.5 mph 61 % 0.0 in 0.0 W/m2 CLR
06:48 14.4 °F 7.0 °F 1018.2 in SSW 11.3 mph 11.3 mph 61 % 0.0 in 0.0 W/m2 CLR
06:53 14.4 °F 7.0 °F 1018.2 in SSW 14.8 mph 14.8 mph 61 % 0.0 in 0.0 W/m2 CLR
06:58 14.4 °F 7.2 °F 1018.2 in SSW 16.7 mph 16.7 mph 62 % 0.0 in 0.0 W/m2 CLR
07:03 14.4 °F 7.2 °F 1018.2 in SW 13.0 mph 13.0 mph 62 % 0.0 in 0.0 W/m2 CLR
07:04 14.4 °F 7.2 °F 1018.2 in SW 13.0 mph 13.0 mph 62 % 0.0 in 0.0 W/m2 CLR
07:09 14.4 °F 7.2 °F 1018.2 in SSW 14.8 mph 14.8 mph 62 % 0.0 in 0.0 W/m2 CLR
07:14 13.9 °F 6.7 °F 1018.2 in SSW 13.0 mph 13.0 mph 62 % 0.0 in 0.0 W/m2 CLR
07:19 13.9 °F 6.7 °F 1018.2 in SW 14.8 mph 14.8 mph 62 % 0.0 in 0.0 W/m2 CLR
07:24 13.9 °F 6.7 °F 1018.2 in South 14.8 mph 14.8 mph 62 % 0.0 in 0.0 W/m2 CLR
07:29 13.9 °F 6.7 °F 1018.2 in SSW 16.1 mph 16.1 mph 62 % 0.0 in 0.0 W/m2 CLR
07:34 13.9 °F 6.7 °F 1018.2 in SW 18.5 mph 18.5 mph 62 % 0.0 in 0.0 W/m2 OVC
07:39 13.9 °F 6.9 °F 1018.2 in SSW 16.7 mph 16.7 mph 63 % 0.0 in 0.0 W/m2 OVC
07:44 13.9 °F 6.9 °F 1018.2 in SSW 14.8 mph 14.8 mph 63 % 0.0 in 0.0 W/m2 OVC
07:49 13.9 °F 6.9 °F 1018.2 in SW 14.8 mph 14.8 mph 63 % 0.0 in 5.0 W/m2 OVC
07:54 13.9 °F 6.9 °F 1018.2 in SSW 14.8 mph 14.8 mph 63 % 0.0 in 5.0 W/m2 OVC
07:59 13.9 °F 6.9 °F 1018.2 in SW 16.7 mph 16.7 mph 63 % 0.0 in 7.0 W/m2 BKN
08:04 13.9 °F 6.9 °F 1018.2 in SW 18.5 mph 18.5 mph 63 % 0.0 in 14.0 W/m2 BKN
08:09 13.9 °F 6.9 °F 1018.2 in SSW 12.9 mph 12.9 mph 63 % 0.0 in 19.0 W/m2 BKN
08:14 13.9 °F 6.9 °F 1018.2 in SSW 7.4 mph 7.4 mph 63 % 0.0 in 25.0 W/m2 BKN
08:19 13.9 °F 7.2 °F 1018.2 in Calm     64 % 0.0 in 32.0 W/m2 BKN
08:24 13.9 °F 7.2 °F 1018.2 in SSW 16.7 mph 16.7 mph 64 % 0.0 in 37.0 W/m2 BKN
08:29 13.9 °F 7.2 °F 1018.2 in SW 18.5 mph 18.5 mph 64 % 0.0 in 37.0 W/m2 BKN
08:34 13.9 °F 7.2 °F 1018.2 in SW 20.4 mph 20.4 mph 64 % 0.0 in 47.0 W/m2 BKN
08:39 13.9 °F 7.2 °F 1018.2 in SW 18.5 mph 18.5 mph 64 % 0.0 in 37.0 W/m2 BKN
08:44 13.9 °F 7.4 °F 1018.2 in SW 19.3 mph 19.3 mph 65 % 0.0 in 47.0 W/m2 BKN
08:49 14.4 °F 8.2 °F 1018.2 in SW 14.8 mph 14.8 mph 66 % 0.0 in 69.0 W/m2 SCT
08:54 13.9 °F 7.4 °F 1018.2 in SW 18.5 mph 18.5 mph 65 % 0.0 in 84.0 W/m2 FEW
08:59 14.4 °F 7.9 °F 1018.2 in South 13.0 mph 13.0 mph 65 % 0.0 in 76.0 W/m2 FEW
09:04 14.4 °F 7.9 °F 1018.2 in SW 16.7 mph 16.7 mph 65 % 0.0 in 49.0 W/m2 FEW
09:09 14.4 °F 8.2 °F 1018.2 in South 18.5 mph 18.5 mph 66 % 0.0 in 54.0 W/m2 SCT
09:14 13.9 °F 7.6 °F 1018.2 in South 20.4 mph 20.4 mph 66 % 0.0 in 63.0 W/m2 SCT
09:19 13.9 °F 7.8 °F 1018.2 in SSW 18.5 mph 18.5 mph 67 % 0.0 in 44.0 W/m2 SCT
09:24 13.9 °F 7.6 °F 1018.2 in SW 18.5 mph 18.5 mph 66 % 0.0 in 30.0 W/m2 SCT
09:29 13.9 °F 7.8 °F 1018.2 in SW 17.7 mph 17.7 mph 67 % 0.0 in 25.0 W/m2 BKN
09:34 13.9 °F 7.8 °F 1018.5 in SW 18.5 mph 18.5 mph 67 % 0.0 in 35.0 W/m2 BKN
09:39 13.9 °F 8.1 °F 1018.5 in SW 18.5 mph 18.5 mph 68 % 0.0 in 46.0 W/m2 BKN
09:44 13.9 °F 8.1 °F 1018.5 in WSW 18.5 mph 18.5 mph 68 % 0.0 in 44.0 W/m2 BKN
09:49 13.9 °F 8.1 °F 1018.5 in SW 18.5 mph 18.5 mph 68 % 0.0 in 33.0 W/m2 BKN
09:54 13.9 °F 8.1 °F 1018.5 in WSW 18.5 mph 18.5 mph 68 % 0.0 in 37.0 W/m2 BKN
09:59 13.9 °F 8.1 °F 1018.5 in WSW 14.5 mph 14.5 mph 68 % 0.0 in 44.0 W/m2 BKN
10:04 13.9 °F 8.3 °F 1018.5 in WSW 14.8 mph 14.8 mph 69 % 0.0 in 53.0 W/m2 BKN
10:09 13.9 °F 8.3 °F 1018.2 in WSW 14.8 mph 14.8 mph 69 % 0.0 in 86.0 W/m2 SCT
10:14 13.9 °F 8.3 °F 1018.5 in West 16.7 mph 16.7 mph 69 % 0.0 in 70.0 W/m2 FEW
10:19 13.9 °F 8.3 °F 1018.5 in WSW 18.5 mph 18.5 mph 69 % 0.0 in 76.0 W/m2 FEW
10:20 13.9 °F 8.3 °F 1018.5 in SW 18.5 mph 18.5 mph 69 % 0.0 in 76.0 W/m2 FEW
10:25 13.9 °F 8.5 °F 1018.5 in WSW 14.8 mph 14.8 mph 70 % 0.0 in 88.0 W/m2 FEW
10:30 13.9 °F 8.5 °F 1018.5 in West 18.5 mph 18.5 mph 70 % 0.0 in 56.0 W/m2 FEW
10:35 13.9 °F 8.5 °F 1018.8 in SW 16.7 mph 16.7 mph 70 % 0.0 in 54.0 W/m2 FEW
10:40 13.9 °F 8.5 °F 1018.8 in WSW 14.8 mph 14.8 mph 70 % 0.0 in 53.0 W/m2 SCT
10:45 13.9 °F 8.5 °F 1018.8 in WSW 18.5 mph 18.5 mph 70 % 0.0 in 46.0 W/m2 SCT
10:50 13.9 °F 8.5 °F 1018.8 in WSW 20.4 mph 20.4 mph 70 % 0.0 in 51.0 W/m2 SCT
10:55 13.9 °F 8.7 °F 1018.8 in West 16.1 mph 16.1 mph 71 % 0.0 in 47.0 W/m2 SCT
11:00 13.3 °F 8.2 °F 1018.8 in West 14.8 mph 14.8 mph 71 % 0.0 in 84.0 W/m2 SCT
11:05 13.3 °F 8.2 °F 1018.8 in WSW 13.0 mph 13.0 mph 71 % 0.0 in 65.0 W/m2 SCT
11:10 13.3 °F 8.6 °F 1018.8 in SW 14.8 mph 14.8 mph 73 % 0.0 in 77.0 W/m2 FEW
11:15 13.3 °F 9.0 °F 1018.8 in WSW 18.5 mph 18.5 mph 75 % 0.0 in 93.0 W/m2 FEW
11:20 13.3 °F 9.4 °F 1018.5 in WSW 14.8 mph 14.8 mph 77 % 0.0 in 127.0 W/m2 CLR
11:25 13.3 °F 9.4 °F 1018.5 in SSW 14.8 mph 14.8 mph 77 % 0.0 in 81.0 W/m2 CLR
11:30 12.8 °F 8.8 °F 1018.8 in SSW 13.0 mph 13.0 mph 77 % 0.0 in 84.0 W/m2 CLR
11:35 12.8 °F 8.8 °F 1018.8 in WSW 18.5 mph 18.5 mph 77 % 0.0 in 70.0 W/m2 FEW
11:40 12.8 °F 8.7 °F 1018.8 in SW 24.1 mph 24.1 mph 76 % 0.0 in 90.0 W/m2 FEW
11:45 12.8 °F 8.7 °F 1018.8 in SSW 13.0 mph 13.0 mph 76 % 0.0 in 107.0 W/m2 CLR
11:50 12.8 °F 8.7 °F 1018.8 in SW 16.7 mph 16.7 mph 76 % 0.0 in 125.0 W/m2 CLR
11:55 12.8 °F 8.7 °F 1018.5 in SW 13.0 mph 13.0 mph 76 % 0.0 in 120.0 W/m2 CLR
12:00 12.8 °F 8.8 °F 1018.8 in SSW 13.0 mph 13.0 mph 77 % 0.0 in 100.0 W/m2 CLR
12:05 12.8 °F 8.8 °F 1018.5 in SW 8.0 mph 8.0 mph 77 % 0.0 in 83.0 W/m2 CLR
12:10 12.8 °F 8.8 °F 1018.5 in SSW 11.1 mph 11.1 mph 77 % 0.0 in 84.0 W/m2 CLR
12:15 12.8 °F 9.1 °F 1018.5 in South 16.7 mph 16.7 mph 78 % 0.0 in 86.0 W/m2 FEW
12:20 12.8 °F 9.2 °F 1018.5 in WSW 5.6 mph 5.6 mph 79 % 0.0 in 90.0 W/m2 FEW
12:25 12.8 °F 9.2 °F 1018.5 in SW 18.5 mph 18.5 mph 79 % 0.0 in 93.0 W/m2 CLR
12:30 12.8 °F 9.4 °F 1018.5 in SSW 16.7 mph 16.7 mph 80 % 0.0 in 72.0 W/m2 CLR
12:35 12.8 °F 9.6 °F 1018.8 in SW 11.3 mph 11.3 mph 81 % 0.0 in 39.0 W/m2 FEW
12:40 12.8 °F 9.8 °F 1018.8 in SW 14.8 mph 14.8 mph 82 % 0.0 in 53.0 W/m2 SCT
12:45 12.8 °F 10.2 °F 1018.8 in SSW 20.4 mph 20.4 mph 84 % 0.5 in 49.0 W/m2 RA
12:50 12.2 °F 9.8 °F 1018.8 in WSW 25.9 mph 25.9 mph 85 % 0.8 in 65.0 W/m2 RA
12:55 12.2 °F 10.1 °F 1018.8 in West 18.5 mph 18.5 mph 87 % 0.8 in 60.0 W/m2 SCT
13:00 12.2 °F 10.3 °F 1018.5 in WSW 11.1 mph 11.1 mph 88 % 0.8 in 125.0 W/m2 FEW
13:05 12.2 °F 10.3 °F 1018.8 in WSW 11.3 mph 11.3 mph 88 % 0.8 in 65.0 W/m2 CLR
13:10 12.2 °F 10.3 °F 1018.8 in WSW 14.8 mph 14.8 mph 88 % 0.8 in 86.0 W/m2 FEW
13:15 12.2 °F 10.4 °F 1018.8 in SW 14.8 mph 14.8 mph 89 % 1.3 in 90.0 W/m2 RA
13:20 12.2 °F 10.4 °F 1018.8 in WSW 11.1 mph 11.1 mph 89 % 1.5 in 51.0 W/m2 RA
13:25 12.2 °F 10.4 °F 1018.8 in SW 16.1 mph 16.1 mph 89 % 1.5 in 47.0 W/m2 RA
13:30 11.7 °F 9.9 °F 1018.8 in WSW 18.5 mph 18.5 mph 89 % 1.5 in 47.0 W/m2 BKN
13:35 11.7 °F 9.9 °F 1018.8 in SW 13.0 mph 13.0 mph 89 % 2.3 in 79.0 W/m2 RA
13:40 11.7 °F 10.1 °F 1018.8 in WSW 13.0 mph 13.0 mph 90 % 2.3 in 114.0 W/m2 RA
13:45 11.7 °F 10.1 °F 1018.8 in SSW 11.1 mph 11.1 mph 90 % 1.8 in 98.0 W/m2 CLR
13:50 11.7 °F 10.1 °F 1018.8 in SW 6.4 mph 6.4 mph 90 % 1.5 in 63.0 W/m2 CLR
13:55 11.7 °F 10.1 °F 1018.8 in SW 18.5 mph 18.5 mph 90 % 1.5 in 121.0 W/m2 CLR
14:00 11.7 °F 10.1 °F 1018.8 in SW 22.2 mph 22.2 mph 90 % 1.5 in 65.0 W/m2 FEW
14:05 11.7 °F 10.1 °F 1018.8 in WSW 16.7 mph 16.7 mph 90 % 1.8 in 98.0 W/m2 RA
14:10 11.7 °F 10.1 °F 1018.5 in WSW 18.5 mph 18.5 mph 90 % 2.3 in 155.0 W/m2 RA
14:12 11.7 °F 10.1 °F 1018.8 in SSW 9.7 mph 9.7 mph 90 % 2.3 in 104.0 W/m2 RA
14:17 11.7 °F 10.1 °F 1018.8 in SSW 16.7 mph 16.7 mph 90 % 1.8 in 104.0 W/m2 CLR
14:22 11.7 °F 10.1 °F 1018.5 in SSW 11.1 mph 11.1 mph 90 % 1.8 in 93.0 W/m2 RA
14:27 11.7 °F 10.1 °F 1018.5 in SW 7.4 mph 7.4 mph 90 % 1.5 in 128.0 W/m2 CLR
14:32 11.7 °F 10.1 °F 1018.5 in WSW 14.5 mph 14.5 mph 90 % 1.3 in 153.0 W/m2 CLR
14:37 12.2 °F 10.6 °F 1018.5 in SW 9.7 mph 9.7 mph 90 % 1.0 in 98.0 W/m2 CLR
14:42 12.2 °F 10.4 °F 1018.5 in SW 16.7 mph 16.7 mph 89 % 0.8 in 46.0 W/m2 CLR
14:47 11.7 °F 9.9 °F 1018.5 in SW 9.3 mph 9.3 mph 89 % 0.8 in 47.0 W/m2 FEW
14:52 11.7 °F 9.9 °F 1018.5 in WSW 12.9 mph 12.9 mph 89 % 0.8 in 49.0 W/m2 SCT
14:57 11.7 °F 9.9 °F 1018.5 in SW 14.8 mph 14.8 mph 89 % 0.8 in 40.0 W/m2 BKN
15:02 11.7 °F 9.9 °F 1018.5 in SW 13.0 mph 13.0 mph 89 % 0.5 in 62.0 W/m2 SCT
15:08 11.7 °F 9.9 °F 1018.2 in WSW 11.1 mph 11.1 mph 89 % 0.8 in 63.0 W/m2 RA
15:13 11.7 °F 9.9 °F 1018.5 in SW 7.4 mph 7.4 mph 89 % 0.5 in 33.0 W/m2 SCT
15:18 11.7 °F 10.1 °F 1018.2 in Calm     90 % 0.5 in 63.0 W/m2 SCT
15:23 11.7 °F 10.1 °F 1018.2 in Calm     90 % 0.5 in 72.0 W/m2 SCT
15:28 11.7 °F 10.1 °F 1018.5 in SW 14.5 mph 14.5 mph 90 % 0.8 in 42.0 W/m2 RA
15:33 11.7 °F 10.1 °F 1018.5 in SW 11.1 mph 11.1 mph 90 % 1.3 in 30.0 W/m2 RA
15:38 11.7 °F 10.1 °F 1018.5 in SW 14.8 mph 14.8 mph 90 % 1.3 in 30.0 W/m2 BKN
15:43 11.1 °F 9.6 °F 1018.5 in WSW 16.7 mph 16.7 mph 90 % 1.5 in 33.0 W/m2 RA
15:48 11.1 °F 9.6 °F 1018.5 in WSW 22.2 mph 22.2 mph 90 % 2.3 in 47.0 W/m2 RA
15:53 11.1 °F 9.7 °F 1018.2 in SW 13.0 mph 13.0 mph 91 % 3.0 in 62.0 W/m2 RA
15:58 11.1 °F 9.7 °F 1018.2 in SW 18.5 mph 18.5 mph 91 % 3.8 in 148.0 W/m2 RA
16:03 11.1 °F 9.7 °F 1018.2 in SSW 14.8 mph 14.8 mph 91 % 4.1 in 123.0 W/m2 RA
16:08 11.1 °F 9.7 °F 1018.2 in WSW 16.7 mph 16.7 mph 91 % 3.6 in 72.0 W/m2 CLR
16:13 10.6 °F 9.2 °F 1018.5 in SSW 18.5 mph 18.5 mph 91 % 3.8 in 44.0 W/m2 RA
16:18 10.6 °F 9.2 °F 1018.2 in SSW 13.0 mph 13.0 mph 91 % 3.8 in 74.0 W/m2 SCT
16:23 10.6 °F 9.2 °F 1018.2 in South 11.3 mph 11.3 mph 91 % 4.1 in 104.0 W/m2 RA
16:28 10.6 °F 9.2 °F 1018.5 in SSW 18.5 mph 18.5 mph 91 % 4.1 in 63.0 W/m2 RA
16:33 10.6 °F 9.0 °F 1018.2 in SSW 18.5 mph 18.5 mph 90 % 3.8 in 40.0 W/m2 RA
16:38 10.6 °F 9.2 °F 1018.2 in South 14.8 mph 14.8 mph 91 % 3.8 in 86.0 W/m2 SCT
16:43 10.6 °F 9.2 °F 1018.2 in SSE 14.8 mph 14.8 mph 91 % 3.3 in 53.0 W/m2 FEW
16:48 10.6 °F 9.2 °F 1017.8 in SSE 16.7 mph 16.7 mph 91 % 2.5 in 58.0 W/m2 FEW
16:53 10.6 °F 9.2 °F 1017.8 in SSE 20.4 mph 20.4 mph 91 % 1.8 in 46.0 W/m2 SCT
16:58 10.6 °F 9.2 °F 1017.5 in SE 11.1 mph 11.1 mph 91 % 1.3 in 123.0 W/m2 SCT
17:03 10.6 °F 9.2 °F 1017.2 in SE 6.4 mph 6.4 mph 91 % 1.3 in 149.0 W/m2 RA
17:08 10.6 °F 9.2 °F 1017.2 in Calm     91 % 1.3 in 105.0 W/m2 CLR
17:13 10.6 °F 9.2 °F 1017.5 in South 13.0 mph 13.0 mph 91 % 1.0 in 69.0 W/m2 CLR
17:18 11.1 °F 9.7 °F 1017.5 in SSE 9.3 mph 9.3 mph 91 % 1.0 in 104.0 W/m2 FEW
17:23 11.1 °F 9.7 °F 1017.2 in Calm     91 % 0.8 in 100.0 W/m2 CLR
17:28 11.1 °F 9.7 °F 1017.2 in Calm     91 % 0.5 in 176.0 W/m2 CLR
17:33 11.1 °F 9.6 °F 1017.2 in Calm     90 % 0.3 in 209.0 W/m2 CLR
17:38 11.7 °F 10.1 °F 1017.2 in SE 14.8 mph 14.8 mph 90 % 0.3 in 165.0 W/m2 CLR
17:43 11.7 °F 9.9 °F 1017.2 in SE 16.7 mph 16.7 mph 89 % 0.3 in 239.0 W/m2 CLR
17:48 12.2 °F 10.4 °F 1017.2 in South 9.3 mph 9.3 mph 89 % 0.3 in 158.0 W/m2 CLR
17:53 12.2 °F 10.4 °F 1016.8 in SE 5.6 mph 5.6 mph 89 % 0.3 in 190.0 W/m2 CLR
17:58 12.2 °F 10.3 °F 1016.8 in SE 8.0 mph 8.0 mph 88 % 0.3 in 353.0 W/m2 CLR
18:03 12.8 °F 10.8 °F 1016.8 in ESE 5.6 mph 5.6 mph 88 % 0.0 in 355.0 W/m2 CLR
18:08 12.8 °F 10.8 °F 1016.8 in Calm     88 % 0.0 in 174.0 W/m2 CLR
18:13 12.8 °F 10.7 °F 1016.8 in SSE 3.7 mph 3.7 mph 87 % 0.0 in 146.0 W/m2 CLR
18:18 12.8 °F 10.5 °F 1016.8 in Calm     86 % 0.0 in 165.0 W/m2 CLR
18:23 12.8 °F 10.5 °F 1016.8 in Calm     86 % 0.0 in 98.0 W/m2 CLR
18:28 12.8 °F 10.5 °F 1016.8 in Calm     86 % 0.0 in 127.0 W/m2 CLR
18:33 12.8 °F 10.5 °F 1016.8 in SE 1.9 mph   86 % 0.0 in 90.0 W/m2 CLR
18:38 12.8 °F 10.5 °F 1016.8 in Calm     86 % 0.0 in 102.0 W/m2 CLR
18:43 12.8 °F 10.5 °F 1016.8 in Calm     86 % 0.0 in 91.0 W/m2 CLR
18:48 12.8 °F 10.3 °F 1017.2 in Calm     85 % 0.0 in 84.0 W/m2 CLR
18:53 12.8 °F 10.2 °F 1016.8 in SE 5.6 mph 5.6 mph 84 % 0.0 in 62.0 W/m2 FEW
18:58 12.8 °F 10.2 °F 1016.8 in SSE 3.7 mph 3.7 mph 84 % 0.0 in 47.0 W/m2 FEW
19:03 12.2 °F 9.6 °F 1016.8 in Calm     84 % 0.0 in 44.0 W/m2 SCT
19:08 12.2 °F 9.6 °F 1016.8 in Calm     84 % 0.0 in 37.0 W/m2 BKN
19:13 12.2 °F 9.6 °F 1016.8 in Calm     84 % 0.0 in 33.0 W/m2 BKN
19:18 12.2 °F 9.6 °F 1016.8 in Calm     84 % 0.0 in 44.0 W/m2 BKN
19:23 12.2 °F 9.6 °F 1016.8 in Calm     84 % 0.0 in 39.0 W/m2 BKN
19:28 12.2 °F 9.8 °F 1016.8 in Calm     85 % 0.0 in 35.0 W/m2 BKN
19:33 12.2 °F 9.9 °F 1016.8 in Calm     86 % 0.0 in 25.0 W/m2 BKN
19:38 12.2 °F 9.8 °F 1016.8 in Calm     85 % 0.0 in 18.0 W/m2 BKN
19:43 12.2 °F 9.8 °F 1016.8 in Calm     85 % 0.0 in 16.0 W/m2 BKN
19:48 12.2 °F 9.8 °F 1016.8 in Calm     85 % 0.0 in 11.0 W/m2 BKN
19:58 12.2 °F 9.9 °F 1016.8 in Calm     86 % 0.0 in 7.0 W/m2 BKN
20:03 12.2 °F 10.1 °F 1016.8 in Calm     87 % 0.0 in 5.0 W/m2 OVC
20:08 11.7 °F 9.6 °F 1016.8 in Calm     87 % 0.0 in 0.0 W/m2 OVC
20:13 11.7 °F 9.4 °F 1016.8 in Calm     86 % 0.0 in 0.0 W/m2 OVC
20:18 11.7 °F 9.2 °F 1016.8 in Calm     85 % 0.0 in 0.0 W/m2 OVC
20:23 11.7 °F 9.2 °F 1016.8 in Calm     85 % 0.0 in 0.0 W/m2 CLR
20:28 11.7 °F 9.2 °F 1016.8 in Calm     85 % 0.0 in 0.0 W/m2 CLR
20:33 11.7 °F 9.1 °F 1016.8 in Calm     84 % 0.0 in 0.0 W/m2 CLR
20:38 11.7 °F 9.1 °F 1016.8 in Calm     84 % 0.0 in 0.0 W/m2 CLR
20:43 11.7 °F 9.1 °F 1016.8 in Calm     84 % 0.0 in 0.0 W/m2 CLR
20:48 11.7 °F 9.2 °F 1016.8 in Calm     85 % 0.0 in 0.0 W/m2 CLR
20:53 11.1 °F 8.7 °F 1017.2 in Calm     85 % 0.0 in 0.0 W/m2 CLR
20:58 11.1 °F 8.7 °F 1017.2 in Calm     85 % 0.0 in 0.0 W/m2 CLR
21:03 11.1 °F 8.8 °F 1017.2 in Calm     86 % 0.0 in 0.0 W/m2 CLR
21:09 11.1 °F 8.8 °F 1017.5 in Calm     86 % 0.0 in 0.0 W/m2 CLR
21:14 10.6 °F 8.3 °F 1017.5 in Calm     86 % 0.0 in 0.0 W/m2 CLR
21:19 10.6 °F 8.5 °F 1017.5 in Calm     87 % 0.0 in 0.0 W/m2 CLR
21:24 10.6 °F 8.5 °F 1017.5 in Calm     87 % 0.0 in 0.0 W/m2 CLR
21:29 10.0 °F 8.1 °F 1017.5 in Calm     88 % 0.0 in 0.0 W/m2 CLR
21:34 10.0 °F 8.1 °F 1017.5 in Calm     88 % 0.0 in 0.0 W/m2 CLR
21:39 10.0 °F 8.3 °F 1017.5 in Calm     89 % 0.0 in 0.0 W/m2 CLR
21:44 10.0 °F 8.3 °F 1017.8 in Calm     89 % 0.0 in 0.0 W/m2 CLR
21:49 10.0 °F 8.3 °F 1017.8 in Calm     89 % 0.0 in 0.0 W/m2 CLR
21:54 10.0 °F 8.3 °F 1017.8 in Calm     89 % 0.0 in 0.0 W/m2 CLR
21:59 10.0 °F 8.4 °F 1017.8 in Calm     90 % 0.0 in 0.0 W/m2 CLR
22:04 10.0 °F 8.4 °F 1017.8 in Calm     90 % 0.0 in 0.0 W/m2 CLR
22:09 10.0 °F 8.4 °F 1017.8 in Calm     90 % 0.0 in 0.0 W/m2 CLR
22:14 9.4 °F 7.9 °F 1017.8 in Calm     90 % 0.0 in 0.0 W/m2 CLR
22:19 9.4 °F 7.9 °F 1017.8 in Calm     90 % 0.0 in 0.0 W/m2 CLR
22:24 9.4 °F 7.9 °F 1017.8 in Calm     90 % 0.0 in 0.0 W/m2 CLR
22:29 9.4 °F 7.9 °F 1017.8 in Calm     90 % 0.0 in 0.0 W/m2 CLR
22:34 8.9 °F 7.3 °F 1017.8 in Calm     90 % 0.0 in 0.0 W/m2 CLR
22:39 8.9 °F 7.3 °F 1017.8 in Calm     90 % 0.0 in 0.0 W/m2 CLR
22:44 8.9 °F 7.3 °F 1017.8 in Calm     90 % 0.0 in 0.0 W/m2 CLR
22:49 8.9 °F 7.3 °F 1017.8 in Calm     90 % 0.0 in 0.0 W/m2 CLR
22:54 8.3 °F 6.8 °F 1017.8 in Calm     90 % 0.0 in 0.0 W/m2 CLR
22:59 8.3 °F 6.6 °F 1017.8 in Calm     89 % 0.0 in 0.0 W/m2 CLR
23:04 8.3 °F 6.3 °F 1017.8 in SSE 7.4 mph 7.4 mph 87 % 0.0 in 0.0 W/m2 CLR
23:09 8.3 °F 6.1 °F 1017.8 in South 5.6 mph 5.6 mph 86 % 0.0 in 0.0 W/m2 CLR
23:14 8.3 °F 6.1 °F 1018.2 in South 5.6 mph 5.6 mph 86 % 0.0 in 0.0 W/m2 CLR
23:19 8.3 °F 6.1 °F 1018.2 in South 5.6 mph 5.6 mph 86 % 0.0 in 0.0 W/m2 CLR
23:24 8.3 °F 6.1 °F 1018.2 in South 9.3 mph 9.3 mph 86 % 0.0 in 0.0 W/m2 CLR
23:29 8.9 °F 6.5 °F 1018.2 in South 14.8 mph 14.8 mph 85 % 0.0 in 0.0 W/m2 CLR
23:34 8.9 °F 6.2 °F 1018.2 in SSW 13.0 mph 13.0 mph 83 % 0.0 in 0.0 W/m2 CLR
23:39 8.9 °F 5.8 °F 1018.2 in SSW 14.8 mph 14.8 mph 81 % 0.0 in 0.0 W/m2 CLR
23:44 9.4 °F 6.0 °F 1018.2 in SSW 18.5 mph 18.5 mph 79 % 0.0 in 0.0 W/m2 CLR
23:49 9.4 °F 5.6 °F 1018.2 in SSW 16.7 mph 16.7 mph 77 % 0.0 in 0.0 W/m2 CLR
23:54 9.4 °F 5.6 °F 1018.2 in SSW 16.7 mph 16.7 mph 77 % 0.0 in 0.0 W/m2 CLR
23:59 10.0 °F 6.2 °F 1018.2 in SSW 13.0 mph 13.0 mph 77 % 0.0 in 0.0 W/m2 CLR
Lo Temps de Massalio
Compliments of Weather Underground - 1.25 mb